Date,TemperatureHighF,TemperatureAvgF,TemperatureLowF,DewpointHighF,DewpointAvgF,DewpointLowF,HumidityHigh,HumidityAvg,HumidityLow,PressureMaxIn,PressureMinIn,WindSpeedMaxMPH,WindSpeedAvgMPH,GustSpeedMaxMPH,PrecipitationSumIn
2013-9-1,81.4,68.9,63.1,69.3,64.6,61.3,97,87,62,29.85,29.74,1,0,6,0.00
2013-9-2,77.4,66.8,60.7,68.9,62.8,59.1,97,88,68,29.85,29.75,2,0,9,0.00
2013-9-3,78.3,65.0,56.3,65.9,60.7,55.3,97,87,57,29.93,29.78,3,0,11,0.17
2013-9-4,74.2,64.7,58.2,67.0,61.4,56.5,96,89,71,30.05,29.91,2,0,5,0.00
2013-9-5,77.7,65.8,59.2,68.0,62.0,57.0,97,88,67,30.06,30.00,1,0,6,0.00
2013-9-6,73.9,63.2,57.8,63.1,57.2,45.1,95,81,61,30.10,30.01,2,0,8,0.00
2013-9-7,72.8,62.5,56.0,65.6,59.8,54.9,97,91,77,30.05,29.96,4,0,6,0.00
2013-9-8,72.1,63.7,58.6,64.4,60.4,57.5,97,89,69,29.97,29.90,1,0,8,0.00
2013-9-9,76.2,65.3,59.1,66.7,61.7,58.0,97,89,68,30.09,29.96,1,0,5,0.00
2013-9-10,78.9,66.0,59.0,67.0,61.9,57.9,97,88,63,30.17,30.08,2,0,5,0.00
2013-9-11,80.9,66.5,58.8,67.6,62.2,57.0,97,87,62,30.16,30.04,4,0,6,0.00
2013-9-12,78.8,65.2,60.6,66.9,61.8,56.0,97,89,66,30.04,29.81,6,1,13,0.00
2013-9-13,71.9,61.1,50.8,58.5,54.3,47.7,96,80,53,29.81,29.73,7,1,11,0.00
2013-9-14,67.6,55.9,48.4,55.2,50.0,46.4,94,82,56,30.07,29.82,1,0,5,0.00
2013-9-15,67.4,57.5,50.2,60.4,54.7,48.6,96,91,72,30.15,30.06,1,0,7,0.00
2013-9-16,78.0,63.7,57.2,64.6,58.6,55.0,97,85,49,30.12,30.02,1,0,7,0.00
2013-9-17,61.0,56.6,52.8,57.0,53.5,51.0,96,90,76,30.19,30.07,3,0,6,0.00
2013-9-18,65.7,55.7,50.4,58.7,53.3,48.7,95,92,78,30.21,30.12,1,0,5,0.00
2013-9-19,72.1,60.0,52.7,64.2,57.6,51.6,97,92,68,30.14,30.04,1,0,6,0.10
2013-9-20,70.2,61.7,57.4,64.5,59.6,56.6,97,93,71,30.05,29.88,1,0,9,0.01
2013-9-21,60.4,58.2,52.9,59.3,57.3,52.0,97,97,94,29.89,29.61,6,1,14,1.32
2013-9-22,64.5,56.0,47.9,59.5,53.8,47.0,97,92,76,29.86,29.68,1,0,6,0.01
2013-9-23,66.0,55.7,49.4,59.3,53.0,48.0,97,91,74,30.00,29.86,1,0,5,0.00
2013-9-24,59.8,55.2,50.1,57.5,53.9,49.0,97,95,90,30.01,29.89,1,0,4,0.01
2013-9-25,56.3,54.7,52.0,55.5,53.8,51.0,97,97,97,29.90,29.80,0,0,4,1.14
2013-9-26,65.1,55.5,51.8,60.4,54.4,51.0,98,96,83,29.99,29.83,1,0,4,0.00
2013-9-27,68.5,56.1,49.2,59.5,52.4,47.0,97,88,66,30.12,29.99,4,0,5,0.00
2013-9-28,61.2,53.4,48.9,56.0,51.1,47.5,97,92,81,30.17,30.09,0,0,4,0.00
2013-9-29,61.7,51.6,44.5,55.2,49.4,43.0,97,92,74,30.12,30.01,1,0,5,0.00
2013-9-30,62.2,53.8,47.6,55.9,51.5,46.8,97,92,74,30.05,29.98,1,0,7,0.00